createdAt,value
2019-04-10T00:01:29.877Z,21.65
2019-04-10T00:04:25.219Z,20.35
2019-04-10T00:07:22.121Z,19.62
2019-04-10T00:10:17.743Z,19.20
2019-04-10T00:13:14.118Z,19.00
2019-04-10T00:16:09.334Z,26.12
2019-04-10T00:19:05.044Z,20.35
2019-04-10T00:22:02.688Z,50.67
2019-04-10T00:24:57.266Z,21.55
2019-04-10T00:27:53.348Z,23.02
2019-04-10T00:30:49.352Z,25.62
2019-04-10T00:33:45.344Z,22.77
2019-04-10T00:36:41.705Z,30.95
2019-04-10T00:39:37.396Z,22.42
2019-04-10T00:42:32.909Z,23.52
2019-04-10T00:45:29.280Z,24.07
2019-04-10T00:48:25.900Z,27.52
2019-04-10T00:51:24.138Z,26.75
2019-04-10T00:54:20.219Z,28.30
2019-04-10T00:57:16.958Z,30.08
2019-04-10T01:00:13.167Z,24.00
2019-04-10T01:03:09.431Z,32.17
2019-04-10T01:06:05.944Z,28.35
2019-04-10T01:09:01.955Z,28.45
2019-04-10T01:11:57.868Z,24.70
2019-04-10T01:14:54.140Z,33.92
2019-04-10T01:17:50.680Z,48.63
2019-04-10T01:20:46.566Z,27.58
2019-04-10T01:23:42.493Z,30.90
2019-04-10T01:26:39.096Z,36.08
2019-04-10T01:29:34.299Z,36.33
2019-04-10T01:32:30.714Z,43.92
2019-04-10T01:35:26.976Z,53.98
2019-04-10T01:38:22.823Z,44.95
2019-04-10T01:41:19.477Z,41.37
2019-04-10T01:44:15.552Z,35.78
2019-04-10T01:47:11.116Z,38.65
2019-04-10T01:50:08.327Z,37.38
2019-04-10T01:53:04.281Z,35.75
2019-04-10T01:56:00.366Z,48.40
2019-04-10T01:58:57.456Z,35.85
2019-04-10T02:01:57.253Z,41.02
2019-04-10T02:04:54.203Z,45.35
2019-04-10T02:08:01.206Z,48.42
2019-04-10T02:10:48.084Z,46.30
2019-04-10T02:13:43.510Z,41.70
2019-04-10T02:16:39.131Z,57.95
2019-04-10T02:19:36.380Z,48.13
2019-04-10T02:22:32.823Z,47.25
2019-04-10T02:25:30.556Z,58.28
2019-04-10T02:28:27.037Z,49.88
2019-04-10T02:31:25.530Z,53.20
2019-04-10T02:34:23.145Z,46.40
2019-04-10T02:37:19.213Z,51.20
2019-04-10T02:40:16.930Z,49.40
2019-04-10T02:43:13.905Z,49.35
2019-04-10T02:46:08.526Z,47.70
2019-04-10T02:49:06.019Z,51.02
2019-04-10T02:52:06.676Z,46.10
2019-04-10T02:55:03.686Z,45.20
2019-04-10T02:58:06.062Z,48.33
2019-04-10T03:01:03.119Z,48.83
2019-04-10T03:03:59.616Z,48.05
2019-04-10T03:06:55.752Z,48.40
2019-04-10T03:10:07.308Z,57.58
2019-04-10T03:12:52.408Z,56.33
2019-04-10T03:15:49.838Z,54.58
2019-04-10T03:18:45.632Z,49.15
2019-04-10T03:21:41.317Z,55.52
2019-04-10T03:24:38.038Z,55.90
2019-04-10T03:27:34.410Z,54.15
2019-04-10T03:30:32.435Z,60.63
2019-04-10T03:36:40.112Z,62.15
2019-04-10T03:39:38.517Z,63.08
2019-04-10T03:42:34.797Z,47.80
2019-04-10T03:45:32.766Z,48.60
2019-04-10T03:48:29.265Z,48.17
2019-04-10T03:51:25.765Z,53.08
2019-04-10T03:54:21.542Z,64.03
2019-04-10T03:57:20.668Z,48.52
2019-04-10T04:00:18.145Z,49.35
2019-04-10T04:03:13.964Z,50.98
2019-04-10T04:06:11.151Z,57.65
2019-04-10T04:09:11.209Z,50.60
2019-04-10T04:12:04.397Z,60.50
2019-04-10T04:15:01.869Z,53.08
2019-04-10T04:17:57.620Z,51.65
2019-04-10T04:20:53.177Z,53.10
2019-04-10T04:23:49.031Z,67.45
2019-04-10T04:26:46.466Z,56.37
2019-04-10T04:29:44.156Z,57.98
2019-04-10T04:32:40.065Z,47.93
2019-04-10T04:35:38.700Z,51.35
2019-04-10T04:38:34.687Z,59.18
2019-04-10T04:41:31.649Z,50.98
2019-04-10T04:44:27.411Z,100.05
2019-04-10T04:47:23.005Z,60.35
2019-04-10T04:50:19.872Z,71.22
2019-04-10T04:53:16.234Z,68.97
2019-04-10T04:56:11.516Z,59.45
2019-04-10T04:59:07.997Z,61.10
2019-04-10T05:02:03.448Z,81.42
2019-04-10T05:05:12.050Z,79.92
2019-04-10T05:08:24.105Z,61.18
2019-04-10T05:11:22.149Z,53.98
2019-04-10T05:14:17.839Z,62.10
2019-04-10T05:17:35.057Z,54.55
2019-04-10T05:20:42.232Z,58.50
2019-04-10T05:23:30.907Z,41.25
2019-04-10T05:26:25.955Z,55.30
2019-04-10T05:29:21.669Z,46.15
2019-04-10T05:32:23.439Z,57.05
2019-04-10T05:35:25.719Z,52.25
2019-04-10T05:38:22.914Z,58.50
2019-04-10T05:41:19.677Z,72.08
2019-04-10T05:44:16.674Z,55.78
2019-04-10T05:47:13.785Z,59.05
2019-04-10T05:50:12.916Z,57.88
2019-04-10T05:53:41.343Z,48.23
2019-04-10T05:56:22.505Z,48.85
2019-04-10T05:59:28.070Z,40.80
2019-04-10T06:02:23.726Z,48.13
2019-04-10T06:05:22.262Z,46.98
2019-04-10T06:08:23.758Z,46.95
2019-04-10T06:11:21.163Z,42.48
2019-04-10T06:14:17.801Z,44.73
2019-04-10T06:17:18.336Z,47.62
2019-04-10T06:20:17.835Z,43.17
2019-04-10T06:23:19.170Z,43.45
2019-04-10T06:26:19.683Z,40.75
2019-04-10T06:29:17.592Z,35.68
2019-04-10T06:32:21.334Z,39.92
2019-04-10T06:35:35.615Z,44.63
2019-04-10T06:38:35.189Z,39.75
2019-04-10T06:41:36.879Z,39.33
2019-04-10T06:44:37.022Z,41.53
2019-04-10T06:47:38.244Z,46.68
2019-04-10T06:50:34.978Z,39.10
2019-04-10T06:53:33.199Z,42.05
2019-04-10T06:56:31.285Z,41.48
2019-04-10T06:59:32.638Z,51.18
2019-04-10T07:02:33.854Z,40.35
2019-04-10T07:05:40.799Z,35.28
2019-04-10T07:08:31.953Z,38.30
2019-04-10T07:11:31.396Z,34.13
2019-04-10T07:14:29.967Z,35.20
2019-04-10T07:17:27.104Z,32.70
2019-04-10T07:20:26.042Z,38.40
2019-04-10T07:23:26.785Z,31.50
2019-04-10T07:26:57.701Z,30.17
2019-04-10T07:29:58.806Z,31.57
2019-04-10T07:32:51.568Z,34.48
2019-04-10T07:35:48.145Z,43.08
2019-04-10T07:38:53.953Z,36.28
2019-04-10T07:41:47.955Z,32.58
2019-04-10T07:44:50.599Z,32.20
2019-04-10T07:47:44.494Z,41.92
2019-04-10T07:50:42.033Z,33.45
2019-04-10T07:53:37.946Z,38.00
2019-04-10T07:56:37.614Z,33.90
2019-04-10T07:59:35.665Z,34.10
2019-04-10T08:02:34.041Z,32.85
2019-04-10T08:05:42.259Z,33.35
2019-04-10T08:08:41.240Z,29.07
2019-04-10T08:11:38.002Z,25.92
2019-04-10T08:14:38.046Z,34.60
2019-04-10T08:17:36.729Z,32.05
2019-04-10T08:20:34.748Z,34.58
2019-04-10T08:23:30.297Z,31.52
2019-04-10T08:26:26.104Z,29.18
2019-04-10T08:29:22.238Z,30.25
2019-04-10T08:32:18.659Z,28.80
2019-04-10T08:35:15.363Z,23.87
2019-04-10T08:38:10.949Z,24.52
2019-04-10T08:41:08.687Z,29.55
2019-04-10T08:44:06.799Z,34.23
2019-04-10T08:47:06.720Z,41.35
2019-04-10T08:50:03.484Z,28.83
2019-04-10T08:52:59.971Z,22.17
2019-04-10T08:55:56.800Z,24.50
2019-04-10T08:58:57.308Z,19.80
2019-04-10T09:01:54.011Z,29.37
2019-04-10T09:04:55.243Z,25.72
2019-04-10T09:08:03.115Z,27.00
2019-04-10T09:11:00.863Z,25.25
2019-04-10T09:13:55.502Z,29.63
2019-04-10T09:16:51.087Z,28.02
2019-04-10T09:19:46.622Z,29.10
2019-04-10T09:23:07.503Z,32.38
2019-04-10T09:25:41.596Z,28.92
2019-04-10T09:28:38.345Z,28.70
2019-04-10T09:31:40.018Z,64.65
2019-04-10T09:34:38.087Z,23.05
2019-04-10T09:37:37.977Z,19.23
2019-04-10T09:43:58.272Z,30.12
2019-04-10T09:46:55.731Z,27.02
2019-04-10T09:53:55.528Z,33.00
2019-04-10T09:57:01.699Z,26.35
2019-04-10T10:00:00.995Z,23.52
2019-04-10T10:03:07.591Z,27.95
2019-04-10T10:06:07.031Z,23.07
2019-04-10T10:09:06.275Z,18.17
2019-04-10T10:12:03.148Z,24.12
2019-04-10T10:15:05.054Z,28.23
2019-04-10T10:18:06.270Z,28.83
2019-04-10T10:21:02.010Z,25.70
2019-04-10T10:24:10.638Z,25.57
2019-04-10T10:27:07.305Z,30.62
2019-04-10T10:30:03.678Z,38.48
2019-04-10T10:33:01.410Z,31.75
2019-04-10T10:36:03.257Z,22.60
2019-04-10T10:39:06.861Z,27.05
2019-04-10T10:42:03.286Z,31.55
2019-04-10T10:45:00.504Z,24.45
2019-04-10T10:47:57.605Z,38.10
2019-04-10T10:51:00.766Z,26.65
2019-04-10T10:54:02.706Z,29.25
2019-04-10T10:57:02.622Z,34.65
2019-04-10T10:59:58.550Z,36.45
2019-04-10T11:03:00.125Z,36.48
2019-04-10T11:05:59.068Z,23.25
2019-04-10T11:08:57.825Z,38.13
2019-04-10T11:11:55.880Z,30.35
2019-04-10T11:14:53.906Z,29.32
2019-04-10T11:17:50.126Z,35.33
2019-04-10T11:24:31.562Z,31.30
2019-04-10T11:27:28.076Z,29.82
2019-04-10T11:30:24.900Z,41.33
2019-04-10T11:33:20.676Z,42.75
2019-04-10T11:36:17.558Z,43.95
2019-04-10T11:39:23.383Z,36.68
2019-04-10T11:42:14.620Z,26.37
2019-04-10T11:45:16.474Z,30.62
2019-04-10T11:48:12.934Z,25.80
2019-04-10T11:51:14.200Z,33.83
2019-04-10T11:54:14.604Z,20.08
2019-04-10T11:57:09.984Z,34.23
2019-04-10T12:00:27.831Z,30.12
2019-04-10T12:03:22.680Z,42.10
2019-04-10T12:06:25.469Z,37.40
2019-04-10T12:12:29.932Z,35.60
2019-04-10T12:15:29.316Z,36.10
2019-04-10T12:18:26.868Z,40.30
2019-04-10T12:21:29.561Z,42.25
2019-04-10T12:24:28.054Z,41.37
2019-04-10T12:27:29.292Z,35.60
2019-04-10T12:30:26.991Z,54.65
2019-04-10T12:33:25.453Z,38.67
2019-04-10T12:36:23.111Z,28.35
2019-04-10T12:39:25.305Z,31.12
2019-04-10T12:42:32.352Z,36.93
2019-04-10T12:45:34.196Z,27.60
2019-04-10T12:48:30.448Z,46.15
2019-04-10T12:51:31.891Z,31.80
2019-04-10T12:54:27.979Z,28.80
2019-04-10T12:57:26.677Z,44.40
2019-04-10T13:00:27.708Z,36.03
2019-04-10T13:03:25.090Z,44.00
2019-04-10T13:06:24.127Z,53.30
2019-04-10T13:09:22.267Z,52.45
2019-04-10T13:12:20.869Z,44.67
2019-04-10T13:15:19.223Z,59.55
2019-04-10T13:18:16.324Z,54.53
2019-04-10T13:21:16.190Z,46.85
2019-04-10T13:24:15.764Z,58.60
2019-04-10T13:27:14.623Z,47.27
2019-04-10T13:30:14.601Z,52.00
2019-04-10T13:33:12.129Z,61.28
2019-04-10T13:36:08.143Z,49.53
2019-04-10T13:39:03.754Z,55.03
2019-04-10T13:42:00.954Z,53.92
2019-04-10T13:44:57.205Z,71.55
2019-04-10T13:47:52.829Z,82.75
2019-04-10T13:50:48.717Z,58.80
2019-04-10T13:53:45.839Z,70.62
2019-04-10T13:56:41.412Z,82.05
2019-04-10T13:59:39.432Z,72.05
2019-04-10T14:02:39.655Z,65.42
2019-04-10T14:05:35.412Z,64.85
2019-04-10T14:08:42.329Z,75.97
2019-04-10T14:11:27.597Z,91.35
2019-04-10T14:14:24.553Z,73.80
2019-04-10T14:17:20.230Z,82.92
2019-04-10T14:20:17.359Z,106.80
2019-04-10T14:23:18.242Z,85.25
2019-04-10T14:26:45.490Z,91.15
2019-04-10T14:29:40.773Z,83.72
2019-04-10T14:32:39.729Z,99.65
2019-04-10T14:35:35.592Z,106.83
2019-04-10T14:38:32.826Z,96.70
2019-04-10T14:41:28.048Z,136.30
2019-04-10T14:44:23.758Z,100.58
2019-04-10T14:47:19.237Z,92.33
2019-04-10T14:50:15.719Z,101.38
2019-04-10T14:53:11.745Z,96.35
2019-04-10T14:56:08.273Z,91.42
2019-04-10T14:59:04.094Z,101.38
2019-04-10T15:02:00.339Z,85.97
2019-04-10T15:04:56.084Z,75.15
2019-04-10T15:07:53.283Z,80.65
2019-04-10T15:10:49.490Z,86.45
2019-04-10T15:13:45.747Z,76.97
2019-04-10T15:16:52.522Z,81.22
2019-04-10T15:19:37.799Z,84.28
2019-04-10T15:22:33.820Z,97.50
2019-04-10T15:25:29.386Z,84.77
2019-04-10T15:28:25.559Z,82.62
2019-04-10T15:31:21.532Z,82.42
2019-04-10T15:34:18.214Z,70.52
2019-04-10T15:37:13.400Z,73.17
2019-04-10T15:40:17.701Z,68.15
2019-04-10T15:43:06.598Z,74.95
2019-04-10T15:46:04.222Z,66.35
2019-04-10T15:49:00.500Z,75.10
2019-04-10T15:51:55.969Z,68.80
2019-04-10T15:54:53.412Z,67.03
2019-04-10T15:57:52.984Z,76.47
2019-04-10T16:00:43.743Z,77.25
2019-04-10T16:03:40.742Z,68.55
2019-04-10T16:06:35.625Z,80.05
2019-04-10T16:09:43.260Z,74.40
2019-04-10T16:12:27.849Z,54.83
2019-04-10T16:15:23.675Z,59.35
2019-04-10T16:18:23.109Z,57.90
2019-04-10T16:21:18.905Z,51.20
2019-04-10T16:24:16.489Z,47.90
2019-04-10T16:27:13.954Z,43.08
2019-04-10T16:30:10.786Z,42.53
2019-04-10T16:33:07.106Z,40.98
2019-04-10T16:36:03.081Z,35.88
2019-04-10T16:39:00.795Z,45.92
2019-04-10T16:41:57.867Z,36.55
2019-04-10T16:44:53.434Z,43.20
2019-04-10T16:47:48.903Z,36.83
2019-04-10T16:50:45.675Z,33.48
2019-04-10T16:53:41.286Z,39.25
2019-04-10T16:56:37.983Z,31.60
2019-04-10T16:59:34.025Z,34.85
2019-04-10T17:02:29.477Z,31.42
2019-04-10T17:05:25.632Z,36.95
2019-04-10T17:08:21.754Z,32.35
2019-04-10T17:11:17.438Z,27.40
2019-04-10T17:14:13.367Z,27.90
2019-04-10T17:17:10.314Z,35.75
2019-04-10T17:20:06.902Z,27.25
2019-04-10T17:23:02.541Z,35.92
2019-04-10T17:25:58.377Z,29.92
2019-04-10T17:28:54.524Z,25.57
2019-04-10T17:31:50.895Z,33.90
2019-04-10T17:34:47.112Z,24.35
2019-04-10T17:37:42.813Z,26.50
2019-04-10T17:40:47.698Z,29.10
2019-04-10T17:43:35.185Z,30.37
2019-04-10T17:46:31.446Z,26.33
2019-04-10T17:49:27.669Z,30.00
2019-04-10T17:52:24.877Z,22.70
2019-04-10T17:55:20.986Z,25.43
2019-04-10T17:58:17.109Z,20.97
2019-04-10T18:01:16.650Z,24.15
2019-04-10T18:04:11.314Z,24.57
2019-04-10T18:07:07.975Z,28.83
2019-04-10T18:10:04.655Z,25.72
2019-04-10T18:13:01.030Z,25.35
2019-04-10T18:15:57.427Z,25.32
2019-04-10T18:18:55.809Z,26.02
2019-04-10T18:21:51.238Z,21.90
2019-04-10T18:24:47.497Z,22.45
2019-04-10T18:27:43.369Z,22.50
2019-04-10T18:30:40.500Z,23.45
2019-04-10T18:33:36.344Z,30.57
2019-04-10T18:36:31.953Z,28.50
2019-04-10T18:39:27.345Z,22.98
2019-04-10T18:42:24.228Z,32.33
2019-04-10T18:45:19.652Z,29.63
2019-04-10T18:48:16.642Z,23.47
2019-04-10T18:51:12.571Z,21.40
2019-04-10T18:54:08.090Z,32.70
2019-04-10T18:57:05.393Z,30.85
2019-04-10T19:36:17.497Z,24.95
2019-04-10T19:39:14.015Z,22.77
2019-04-10T19:42:09.497Z,23.57
2019-04-10T19:45:07.728Z,21.87
2019-04-10T19:48:03.163Z,30.10
2019-04-10T19:50:59.753Z,24.05
2019-04-10T19:53:55.503Z,25.92
2019-04-10T19:56:51.496Z,26.97
2019-04-10T19:59:48.066Z,26.85
2019-04-10T20:02:43.582Z,29.32
2019-04-10T20:05:39.312Z,24.80
2019-04-10T20:08:35.510Z,23.45
2019-04-10T20:11:37.370Z,22.48
2019-04-10T20:14:28.363Z,28.30
2019-04-10T20:17:24.049Z,27.20
2019-04-10T20:20:19.379Z,20.17
2019-04-10T20:23:15.938Z,37.60
2019-04-10T20:26:11.079Z,26.75
2019-04-10T20:29:06.837Z,28.62
2019-04-10T20:32:02.492Z,25.72
2019-04-10T20:34:58.546Z,25.62
2019-04-10T20:37:55.327Z,28.47
2019-04-10T20:40:50.477Z,38.58
2019-04-10T20:43:51.249Z,27.60
2019-04-10T20:46:46.884Z,23.18
2019-04-10T20:49:42.566Z,26.52
2019-04-10T20:52:40.853Z,26.80
2019-04-10T20:55:35.500Z,38.23
2019-04-10T20:58:30.816Z,24.92
2019-04-10T21:01:26.333Z,27.15
2019-04-10T21:04:23.430Z,65.65
2019-04-10T21:07:19.155Z,34.05
2019-04-10T21:10:15.028Z,28.38
2019-04-10T21:13:10.826Z,23.15
2019-04-10T21:16:07.025Z,34.65
2019-04-10T21:19:02.365Z,26.27
2019-04-10T21:21:57.724Z,24.70
2019-04-10T21:24:54.069Z,25.92
2019-04-10T21:27:51.931Z,23.62
2019-04-10T21:31:02.139Z,24.25
2019-04-10T21:34:13.943Z,19.90
2019-04-10T21:37:10.186Z,43.23
2019-04-10T21:40:06.003Z,30.00
2019-04-10T21:43:01.585Z,28.32
2019-04-10T21:45:57.472Z,33.83
2019-04-10T21:48:53.118Z,30.25
2019-04-10T21:51:49.407Z,35.92
2019-04-10T21:54:49.660Z,46.70
2019-04-10T21:57:40.464Z,58.73
2019-04-10T22:00:52.655Z,57.50
2019-04-10T22:03:56.285Z,55.45
2019-04-10T22:07:03.450Z,56.05
2019-04-10T22:10:23.899Z,59.55
2019-04-10T22:13:19.790Z,64.67
2019-04-10T22:16:15.831Z,54.25
2019-04-10T22:19:12.198Z,49.90
2019-04-10T22:22:08.309Z,52.55
2019-04-10T22:25:05.330Z,51.45
2019-04-10T22:28:00.806Z,52.08
2019-04-10T22:30:56.026Z,60.28
2019-04-10T22:33:52.410Z,49.77
2019-04-10T22:36:49.253Z,47.98
2019-04-10T22:39:44.521Z,48.95
2019-04-10T22:42:45.891Z,47.00
2019-04-10T22:45:41.486Z,39.55
2019-04-10T22:48:37.194Z,40.00
2019-04-10T22:51:33.278Z,42.55
2019-04-10T22:54:28.592Z,39.70
2019-04-10T22:57:23.696Z,38.38
2019-04-10T23:00:24.282Z,52.67
2019-04-10T23:03:20.222Z,42.67
2019-04-10T23:06:15.670Z,40.30
2019-04-10T23:09:13.871Z,40.40
2019-04-10T23:12:09.778Z,34.83
2019-04-10T23:15:04.429Z,46.92
2019-04-10T23:18:01.191Z,47.20
2019-04-10T23:20:57.147Z,46.42
2019-04-10T23:23:52.515Z,42.53
2019-04-10T23:26:47.633Z,43.28
2019-04-10T23:29:44.282Z,39.95
2019-04-10T23:32:39.578Z,44.45
2019-04-10T23:35:35.720Z,44.93
2019-04-10T23:38:31.200Z,40.43
2019-04-10T23:41:27.185Z,43.05
2019-04-10T23:44:22.912Z,43.98
2019-04-10T23:47:18.346Z,42.83
2019-04-10T23:50:15.008Z,41.37
2019-04-10T23:53:09.634Z,38.75
2019-04-10T23:56:06.262Z,36.70
2019-04-10T23:59:01.123Z,61.23
